Time;durP1;ratioP1;P1;durP2;ratioP2;P2;SDS_P1;SDS_P2;PMS_P1;PMS_P2;Temp;Humidity;BMP_temperature;BMP_pressure;BME280_temperature;BME280_humidity;BME280_pressure;Samples;Min_cycle;Max_cycle;Signal;HPM_P1;HPM_P2
2023/09/01 00:00:12;;;;;;;12.38;4.10;;;14.10;99.90;;;14.56;71.98;100183.91;5017204;28;20045;-84
2023/09/01 00:02:43;;;;;;;7.00;3.97;;;14.10;99.90;;;14.56;71.95;100189.28;5027367;28;20037;-84
2023/09/01 00:05:11;;;;;;;7.57;4.10;;;14.10;99.90;;;14.54;72.02;100191.38;5010116;28;20042;-84
2023/09/01 00:07:39;;;;;;;7.55;4.07;;;14.00;99.90;;;14.54;72.28;100202.97;5008343;28;20034;-84
2023/09/01 00:10:07;;;;;;;6.93;4.03;;;14.00;99.90;;;14.53;72.15;100200.50;5016472;28;20140;-84
2023/09/01 00:12:34;;;;;;;8.75;4.28;;;14.00;99.90;;;14.50;71.92;100196.44;5011180;28;20065;-84
2023/09/01 00:15:03;;;;;;;8.35;4.07;;;14.00;99.90;;;14.49;72.08;100196.66;5010805;28;20073;-84
2023/09/01 00:17:30;;;;;;;7.72;4.13;;;14.00;99.90;;;14.46;71.84;100200.63;5010436;28;20056;-84
2023/09/01 00:19:59;;;;;;;7.85;4.05;;;14.00;99.90;;;14.45;71.67;100198.22;5026788;28;20050;-84
2023/09/01 00:22:26;;;;;;;7.53;3.80;;;14.00;99.90;;;14.43;71.66;100204.59;5033641;28;20080;-84
2023/09/01 00:24:53;;;;;;;10.38;4.40;;;13.90;99.90;;;14.44;71.69;100200.06;5021993;28;20102;-84
2023/09/01 00:27:21;;;;;;;7.10;3.50;;;13.90;99.90;;;14.41;71.58;100206.72;5018211;28;20068;-84
2023/09/01 00:29:48;;;;;;;12.50;3.95;;;13.90;99.90;;;14.41;71.57;100208.59;5017821;28;20065;-84
2023/09/01 00:32:18;;;;;;;9.82;4.20;;;13.90;99.90;;;14.40;71.48;100210.47;5011964;28;20487;-84
2023/09/01 00:34:45;;;;;;;7.45;3.78;;;13.90;99.90;;;14.37;71.43;100196.72;5037152;28;20071;-84
2023/09/01 00:37:14;;;;;;;8.13;3.88;;;13.90;99.90;;;14.34;71.82;100200.69;5007657;28;20532;-84
2023/09/01 00:39:41;;;;;;;7.35;3.60;;;13.90;99.90;;;14.34;71.72;100198.00;5017917;28;20069;-84
2023/09/01 00:42:08;;;;;;;6.72;3.40;;;13.80;99.90;;;14.33;71.40;100198.25;5011357;28;20585;-84
2023/09/01 00:44:36;;;;;;;8.00;3.70;;;13.80;99.90;;;14.30;71.49;100191.53;5029581;28;20106;-84
2023/09/01 00:47:03;;;;;;;8.15;3.97;;;13.80;99.90;;;14.30;71.70;100201.41;5012338;28;20045;-84
2023/09/01 00:49:31;;;;;;;8.27;3.80;;;13.80;99.90;;;14.26;71.73;100189.56;5032441;28;20045;-84
2023/09/01 00:52:00;;;;;;;7.80;3.50;;;13.80;99.90;;;14.25;71.84;100188.75;5009153;28;20038;-84
2023/09/01 00:54:29;;;;;;;10.75;3.83;;;13.80;99.90;;;14.25;71.50;100188.75;5008489;28;20050;-84
2023/09/01 00:56:57;;;;;;;6.60;3.80;;;13.80;99.90;;;14.26;71.32;100186.88;5033359;28;20100;-84
2023/09/01 00:59:25;;;;;;;9.95;4.13;;;13.80;99.90;;;14.24;71.49;100186.31;5024556;28;20073;-83
2023/09/01 01:01:53;;;;;;;8.68;3.60;;;13.70;99.90;;;14.23;71.30;100190.03;5034382;28;20049;-84
2023/09/01 01:04:23;;;;;;;10.40;3.78;;;13.70;99.90;;;14.21;71.87;100184.13;5017822;28;20537;-84
2023/09/01 01:06:59;;;;;;;8.18;3.67;;;13.70;99.90;;;14.23;72.10;100184.69;5035290;28;20086;-84
2023/09/01 01:09:41;;;;;;;8.82;3.65;;;13.80;99.90;;;14.24;72.37;100180.94;5015410;28;20112;-83
2023/09/01 01:12:22;;;;;;;9.40;3.65;;;13.80;99.90;;;14.22;72.16;100178.50;5030677;28;20069;-84
2023/09/01 01:14:54;;;;;;;10.32;3.97;;;13.70;99.90;;;14.21;72.24;100174.19;5011588;28;20148;-84
2023/09/01 01:17:22;;;;;;;9.00;3.85;;;13.70;99.90;;;14.19;72.10;100170.94;5031079;28;20055;-84
2023/09/01 01:19:53;;;;;;;8.27;3.70;;;13.70;99.90;;;14.17;72.35;100173.88;5011583;28;20510;-83
2023/09/01 01:22:40;;;;;;;7.70;4.00;;;13.70;99.90;;;14.18;72.62;100174.69;5035849;28;20041;-84
2023/09/01 01:25:10;;;;;;;6.30;3.42;;;13.70;99.90;;;14.19;72.44;100170.94;5035502;28;20065;-84
2023/09/01 01:27:38;;;;;;;8.98;3.78;;;13.70;99.90;;;14.18;72.42;100164.75;5027580;28;20069;-84
2023/09/01 01:30:07;;;;;;;7.88;3.75;;;13.70;99.90;;;14.18;72.30;100167.44;5031734;28;20038;-84
2023/09/01 01:32:35;;;;;;;10.82;4.55;;;13.70;99.90;;;14.17;72.38;100167.69;5030127;28;20046;-84
2023/09/01 01:35:15;;;;;;;5.70;3.40;;;13.70;99.90;;;14.15;72.29;100164.41;4987244;28;20076;-84
2023/09/01 01:38:00;;;;;;;7.73;3.60;;;13.60;99.90;;;14.13;72.28;100172.72;5013929;28;20049;-84
2023/09/01 01:40:31;;;;;;;7.70;3.70;;;13.70;99.90;;;14.13;72.34;100169.22;5025960;28;20135;-83
2023/09/01 01:43:02;;;;;;;8.70;3.80;;;13.60;99.90;;;14.12;72.44;100170.28;5035837;28;20076;-84
2023/09/01 01:45:31;;;;;;;6.53;3.60;;;13.70;99.90;;;14.13;72.54;100172.72;5014162;28;20052;-84
2023/09/01 01:47:59;;;;;;;9.57;4.30;;;13.70;99.90;;;14.12;72.59;100170.28;5029360;28;20426;-84
2023/09/01 01:50:26;;;;;;;9.63;3.97;;;13.70;99.90;;;14.12;72.78;100171.09;5014531;28;20069;-84
2023/09/01 01:52:54;;;;;;;8.75;4.32;;;13.70;99.90;;;14.13;72.89;100156.63;5027551;28;20048;-84
2023/09/01 01:55:21;;;;;;;8.32;4.13;;;13.60;99.90;;;14.13;72.70;100161.19;5015536;28;20124;-84
2023/09/01 01:57:50;;;;;;;11.10;4.30;;;13.70;99.90;;;14.13;72.67;100162.00;5034332;28;20087;-85
2023/09/01 02:00:19;;;;;;;9.40;3.90;;;13.70;99.90;;;14.12;72.86;100167.59;5031776;28;20054;-84
2023/09/01 02:02:46;;;;;;;6.65;3.70;;;13.70;99.90;;;14.12;72.52;100159.56;5031683;28;20080;-84
2023/09/01 02:05:14;;;;;;;7.72;3.97;;;13.60;99.90;;;14.10;72.23;100157.13;5030234;28;20409;-85
2023/09/01 02:07:41;;;;;;;7.88;3.80;;;13.60;99.90;;;14.08;72.12;100150.38;5029763;28;20045;-84
2023/09/01 02:10:09;;;;;;;12.55;3.88;;;13.60;99.90;;;14.06;72.25;100152.50;5032875;28;20748;-84
2023/09/01 02:12:37;;;;;;;10.73;4.13;;;13.60;99.90;;;14.03;72.32;100150.28;5003143;28;20482;-84
2023/09/01 02:15:09;;;;;;;7.20;3.60;;;13.50;99.90;;;14.04;72.75;100160.75;5016177;28;20041;-84
2023/09/01 02:17:37;;;;;;;8.25;4.00;;;13.60;99.90;;;14.04;72.28;100160.75;5011752;28;20045;-84
2023/09/01 02:20:16;;;;;;;8.02;3.50;;;13.50;99.90;;;14.03;72.40;100169.06;5024443;28;20044;-84
2023/09/01 02:22:44;;;;;;;8.48;3.42;;;13.50;99.90;;;14.00;72.15;100164.97;5020263;28;20410;-84
2023/09/01 02:25:12;;;;;;;6.63;3.20;;;13.50;99.90;;;13.99;72.36;100165.22;5009182;28;20049;-84
2023/09/01 02:27:41;;;;;;;10.00;3.65;;;13.50;99.90;;;13.98;72.55;100156.38;5025764;28;20038;-84
2023/09/01 02:30:13;;;;;;;8.80;3.55;;;13.50;99.90;;;13.97;72.38;100156.63;5008870;28;20088;-85
2023/09/01 02:32:41;;;;;;;10.68;3.50;;;13.50;99.90;;;13.95;72.40;100164.06;5033477;28;20029;-84
2023/09/01 02:35:09;;;;;;;7.72;3.53;;;13.50;99.90;;;13.94;72.37;100162.44;5027338;28;20497;-84
2023/09/01 02:37:37;;;;;;;7.32;3.80;;;13.40;99.90;;;13.90;72.39;100176.31;5012662;28;20046;-84
2023/09/01 02:40:10;;;;;;;8.63;3.50;;;13.40;99.90;;;13.88;72.36;100173.09;5029223;28;20040;-84
2023/09/01 02:42:40;;;;;;;8.90;3.45;;;13.40;99.90;;;13.88;72.59;100172.28;5029704;28;20042;-84
2023/09/01 02:45:12;;;;;;;6.15;3.55;;;13.40;99.90;;;13.88;72.61;100177.63;5009940;28;20053;-84
2023/09/01 02:47:40;;;;;;;8.32;4.00;;;13.40;99.90;;;13.90;72.72;100180.88;5020335;28;20049;-84
2023/09/01 02:50:09;;;;;;;7.57;4.05;;;13.40;99.90;;;13.89;73.01;100174.69;5012111;28;20049;-84
2023/09/01 02:52:36;;;;;;;7.45;3.30;;;13.40;99.90;;;13.89;73.12;100173.88;5024702;28;20052;-84
2023/09/01 02:55:06;;;;;;;10.27;3.72;;;13.40;99.90;;;13.89;73.54;100163.97;5008415;28;20041;-84
2023/09/01 02:57:35;;;;;;;7.82;3.55;;;13.40;99.90;;;13.90;73.67;100160.25;5011738;28;20045;-83
2023/09/01 03:00:14;;;;;;;7.57;3.80;;;13.50;99.90;;;13.94;73.78;100159.75;5010767;28;20136;-84
2023/09/01 03:02:44;;;;;;;7.70;4.00;;;13.50;99.90;;;13.96;74.10;100160.31;5021791;28;20045;-84
2023/09/01 03:05:11;;;;;;;6.78;3.78;;;13.50;99.90;;;13.97;73.99;100161.97;5015504;28;20091;-84
2023/09/01 03:07:39;;;;;;;11.77;4.15;;;13.60;99.90;;;13.98;74.34;100163.59;5033944;28;20063;-83
2023/09/01 03:10:08;;;;;;;8.55;3.92;;;13.60;99.90;;;13.98;74.54;100158.22;5007734;28;20042;-84
2023/09/01 03:12:37;;;;;;;7.25;4.00;;;13.60;99.90;;;13.99;74.70;100159.84;5001070;28;20505;-84
2023/09/01 03:15:07;;;;;;;7.63;4.18;;;13.60;99.90;;;14.00;74.83;100161.47;5014032;28;20049;-84
2023/09/01 03:17:34;;;;;;;8.63;3.85;;;13.60;99.90;;;13.99;74.92;100166.03;5033705;28;20056;-84
2023/09/01 03:20:05;;;;;;;10.65;4.60;;;13.60;99.90;;;14.01;74.90;100163.13;5016349;28;20410;-85
2023/09/01 03:22:32;;;;;;;8.70;4.00;;;13.60;99.90;;;14.03;75.11;100163.69;5033268;28;20076;-84
2023/09/01 03:25:00;;;;;;;8.27;4.60;;;13.60;99.90;;;14.03;75.08;100167.19;5014436;28;20034;-84
2023/09/01 03:27:27;;;;;;;10.10;4.07;;;13.70;99.90;;;14.04;75.41;100166.13;5028189;28;20049;-84
2023/09/01 03:29:56;;;;;;;8.23;4.43;;;13.70;99.90;;;14.09;75.62;100171.56;5005594;28;20041;-84
2023/09/01 03:32:26;;;;;;;7.38;4.13;;;13.70;99.90;;;14.11;75.60;100166.00;5013090;28;20502;-85
2023/09/01 03:34:54;;;;;;;8.35;4.65;;;13.70;99.90;;;14.14;75.50;100165.47;5024683;28;20055;-84
2023/09/01 03:37:23;;;;;;;12.80;5.05;;;13.70;99.90;;;14.16;75.58;100168.75;5007455;28;20053;-84
2023/09/01 03:39:50;;;;;;;11.45;5.22;;;13.80;99.90;;;14.17;75.45;100165.00;5010043;28;20581;-84
2023/09/01 03:42:18;;;;;;;8.10;4.40;;;13.80;99.90;;;14.18;75.64;100163.94;5022985;28;20050;-84
2023/09/01 03:44:46;;;;;;;7.60;4.25;;;13.80;99.90;;;14.18;75.85;100166.63;5010204;28;20037;-84
2023/09/01 03:47:14;;;;;;;9.80;4.47;;;13.80;99.90;;;14.20;76.01;100164.53;4994497;28;20510;-84
2023/09/01 03:49:42;;;;;;;10.27;4.55;;;13.80;99.90;;;14.23;75.95;100158.66;4987411;28;20046;-84
2023/09/01 03:52:09;;;;;;;13.93;5.00;;;13.80;99.90;;;14.25;76.08;100150.38;4996351;28;20510;-84
2023/09/01 03:54:38;;;;;;;8.55;4.63;;;13.90;99.90;;;14.26;76.08;100147.47;5026529;28;20056;-84
2023/09/01 03:57:06;;;;;;;9.13;4.60;;;13.90;99.90;;;14.26;76.13;100152.81;5007411;28;20066;-84
2023/09/01 03:59:33;;;;;;;10.70;4.53;;;13.90;99.90;;;14.27;76.23;100150.97;5004882;28;20053;-83
2023/09/01 04:02:00;;;;;;;8.52;4.53;;;13.90;99.90;;;14.26;76.41;100146.66;5031804;28;20517;-84
2023/09/01 04:04:28;;;;;;;9.50;4.53;;;13.90;99.90;;;14.27;76.60;100143.72;5009550;28;20132;-84
2023/09/01 04:06:55;;;;;;;10.23;4.68;;;13.90;99.90;;;14.28;76.71;100133.78;5025480;28;20447;-84
2023/09/01 04:09:22;;;;;;;11.40;4.75;;;14.00;99.90;;;14.29;76.52;100130.06;5011241;28;20068;-84
2023/09/01 04:11:51;;;;;;;9.52;4.70;;;14.00;99.90;;;14.30;76.51;100126.31;5020241;28;20042;-84
2023/09/01 04:14:18;;;;;;;8.23;4.13;;;14.00;99.90;;;14.34;76.48;100128.25;5000697;28;20124;-84
2023/09/01 04:16:46;;;;;;;9.88;5.15;;;14.00;99.90;;;14.35;76.19;100127.22;5007630;28;20044;-83
2023/09/01 04:19:13;;;;;;;10.90;4.65;;;14.00;99.90;;;14.35;76.19;100129.91;4997347;28;20885;-83
2023/09/01 04:21:41;;;;;;;11.27;4.82;;;14.00;99.90;;;14.35;76.20;100127.22;4999861;28;20137;-84
2023/09/01 04:24:10;;;;;;;10.18;4.45;;;14.00;99.90;;;14.32;76.25;100135.75;5007515;28;20137;-84
2023/09/01 04:26:37;;;;;;;13.05;4.90;;;14.00;99.90;;;14.33;76.22;100136.56;4995320;28;20521;-84
2023/09/01 04:29:06;;;;;;;9.25;4.60;;;14.00;99.90;;;14.29;76.43;100133.53;5001669;28;20104;-84
2023/09/01 04:31:33;;;;;;;9.27;4.40;;;13.90;99.90;;;14.27;76.40;100141.03;5024824;28;20133;-84
2023/09/01 04:34:03;;;;;;;8.90;4.40;;;13.90;99.90;;;14.27;76.49;100134.88;5009199;28;20049;-84
2023/09/01 04:36:32;;;;;;;11.48;4.68;;;13.90;99.90;;;14.26;76.61;100135.91;5013524;28;20048;-84
2023/09/01 04:39:03;;;;;;;9.30;5.03;;;13.90;99.90;;;14.29;76.68;100135.41;5011522;28;20144;-83
2023/09/01 04:41:31;;;;;;;8.93;4.38;;;13.90;99.90;;;14.28;77.06;100123.88;5012250;28;20048;-85
2023/09/01 04:43:59;;;;;;;8.82;4.60;;;14.00;99.90;;;14.28;76.88;100131.94;5001564;28;20045;-84
2023/09/01 04:46:27;;;;;;;8.98;4.50;;;13.90;99.90;;;14.30;77.29;100123.63;5024238;28;20108;-84
2023/09/01 04:48:55;;;;;;;7.82;4.50;;;14.00;99.90;;;14.31;77.35;100133.31;5018476;28;20388;-84
2023/09/01 04:51:22;;;;;;;11.15;4.55;;;13.90;99.90;;;14.30;77.67;100137.88;5014810;28;20041;-84
2023/09/01 04:53:50;;;;;;;8.40;4.55;;;14.00;99.90;;;14.32;77.78;100137.63;5036336;28;20475;-85
2023/09/01 04:56:18;;;;;;;10.38;4.60;;;14.00;99.90;;;14.35;77.97;100132.59;5010366;28;20034;-83
2023/09/01 04:58:45;;;;;;;9.57;4.00;;;14.00;99.90;;;14.38;78.00;100142.00;5038488;28;20039;-86
2023/09/01 05:01:13;;;;;;;7.70;4.20;;;14.00;99.90;;;14.38;78.08;100140.13;5032698;28;20046;-85
2023/09/01 05:03:43;;;;;;;9.68;4.75;;;14.10;99.90;;;14.38;78.11;100134.75;5017692;28;20041;-83
2023/09/01 05:06:11;;;;;;;9.60;4.82;;;14.10;99.90;;;14.39;78.64;100133.69;5035102;28;20053;-84
2023/09/01 05:08:38;;;;;;;9.05;4.80;;;14.10;99.90;;;14.40;78.73;100131.88;5011826;28;20414;-84
2023/09/01 05:11:06;;;;;;;14.82;5.03;;;14.10;99.90;;;14.42;78.79;100135.09;5012563;28;20072;-84
2023/09/01 05:13:35;;;;;;;10.15;5.03;;;14.10;99.90;;;14.44;79.04;100130.28;5018115;28;20086;-85
2023/09/01 05:16:03;;;;;;;10.70;5.22;;;14.10;99.90;;;14.46;79.38;100136.25;5036471;28;20128;-84
2023/09/01 05:18:30;;;;;;;14.20;5.10;;;14.20;99.90;;;14.50;79.31;100136.59;5032030;28;20481;-85
2023/09/01 05:20:59;;;;;;;9.20;5.28;;;14.20;99.90;;;14.52;79.19;100140.66;5029222;28;20037;-84
2023/09/01 05:23:32;;;;;;;8.68;4.97;;;14.20;99.90;;;14.53;79.26;100141.47;5032712;28;20068;-85
2023/09/01 05:26:00;;;;;;;11.57;4.90;;;14.20;99.90;;;14.52;79.44;100145.22;5013702;28;20045;-85
2023/09/01 05:28:27;;;;;;;12.75;4.90;;;14.20;99.90;;;14.53;79.86;100142.28;5022207;28;20041;-85
2023/09/01 05:30:57;;;;;;;10.43;4.80;;;14.20;99.90;;;14.55;80.07;100155.47;5028241;28;20406;-86
2023/09/01 05:33:24;;;;;;;9.88;4.82;;;14.30;99.90;;;14.56;80.22;100141.78;5012195;28;20042;-84
2023/09/01 05:35:53;;;;;;;10.13;5.20;;;14.30;99.90;;;14.57;80.27;100145.28;5011550;28;20034;-85
2023/09/01 05:38:21;;;;;;;17.33;5.63;;;14.30;99.90;;;14.58;80.36;100149.59;5032792;28;20513;-84
2023/09/01 05:40:56;;;;;;;9.40;4.75;;;14.30;99.90;;;14.60;80.49;100150.19;5032824;28;20053;-84
2023/09/01 05:43:24;;;;;;;13.25;5.57;;;14.30;99.90;;;14.62;81.04;100150.72;5032260;28;20517;-83
2023/09/01 05:45:52;;;;;;;10.90;5.18;;;14.40;99.90;;;14.64;81.39;100154.81;5029111;28;20037;-85
2023/09/01 05:48:19;;;;;;;9.82;5.25;;;14.40;99.90;;;14.66;81.85;100162.59;5036928;28;20764;-84
2023/09/01 05:50:46;;;;;;;13.82;5.65;;;14.40;99.90;;;14.69;81.97;100151.38;5018230;28;20049;-84
2023/09/01 05:53:16;;;;;;;7.70;4.65;;;14.40;99.90;;;14.73;81.88;100141.75;5026858;28;20060;-84
2023/09/01 05:55:45;;;;;;;8.20;4.82;;;14.50;99.90;;;14.77;82.22;100142.09;5028644;28;20045;-83
2023/09/01 05:58:13;;;;;;;8.70;4.60;;;14.50;99.90;;;14.78;82.27;100128.41;5018346;28;20195;-83
2023/09/01 06:00:41;;;;;;;9.15;4.95;;;14.50;99.90;;;14.80;82.09;100123.63;5015180;28;20520;-84
2023/09/01 06:03:08;;;;;;;10.10;4.80;;;14.60;99.90;;;14.83;82.39;100131.16;4991664;28;20046;-84
2023/09/01 06:05:35;;;;;;;8.88;5.05;;;14.60;99.90;;;14.85;82.84;100145.16;5025398;28;20822;-84
2023/09/01 06:08:03;;;;;;;12.85;5.75;;;14.60;99.90;;;14.88;82.91;100139.31;5029577;28;20451;-84
2023/09/01 06:10:30;;;;;;;7.88;4.53;;;14.60;99.90;;;14.96;83.05;100131.88;5031132;28;20041;-84
2023/09/01 06:12:59;;;;;;;8.93;5.43;;;14.70;99.90;;;14.98;82.66;100132.44;5011067;28;20128;-84
2023/09/01 06:15:26;;;;;;;10.15;5.57;;;14.80;99.90;;;15.04;82.54;100150.25;5009516;28;20034;-85
2023/09/01 06:17:54;;;;;;;10.65;6.15;;;14.90;99.90;;;15.10;83.01;100160.81;5012029;28;20042;-84
2023/09/01 06:20:21;;;;;;;11.38;6.03;;;14.90;99.90;;;15.15;82.82;100157.38;5017084;28;20053;-85
2023/09/01 06:22:50;;;;;;;13.98;7.43;;;15.00;99.90;;;15.15;83.10;100162.75;5024219;28;20038;-84
2023/09/01 06:25:17;;;;;;;9.85;7.07;;;15.00;99.90;;;15.16;83.39;100165.19;5007420;28;20065;-84
2023/09/01 06:27:44;;;;;;;12.02;6.95;;;15.00;99.90;;;15.17;82.88;100174.06;5020078;28;20060;-84
2023/09/01 06:30:14;;;;;;;10.88;6.72;;;15.00;99.90;;;15.17;82.84;100161.44;5009427;28;20069;-84
2023/09/01 06:32:41;;;;;;;16.58;6.80;;;15.00;99.90;;;15.17;83.45;100160.63;5035202;28;20037;-84
2023/09/01 06:35:09;;;;;;;11.77;6.07;;;15.00;99.90;;;15.20;83.67;100168.19;5032971;28;20045;-84
2023/09/01 06:37:36;;;;;;;10.85;5.82;;;15.00;99.90;;;15.23;83.86;100175.75;5023955;28;20100;-84
2023/09/01 06:40:05;;;;;;;11.15;6.03;;;15.10;99.90;;;15.25;83.96;100170.94;5008964;28;20044;-84
2023/09/01 06:42:32;;;;;;;8.65;5.40;;;15.10;99.90;;;15.29;84.52;100160.53;5033185;28;20063;-84
2023/09/01 06:44:59;;;;;;;13.95;5.55;;;15.10;99.90;;;15.31;85.37;100161.88;5026685;28;20050;-84
2023/09/01 06:47:28;;;;;;;11.13;5.20;;;15.20;99.90;;;15.34;85.27;100168.63;5012531;28;20042;-85
2023/09/01 06:49:55;;;;;;;16.63;6.00;;;15.20;99.90;;;15.36;85.77;100159.25;5030342;28;20077;-83
2023/09/01 06:52:23;;;;;;;10.27;5.65;;;15.30;99.90;;;15.39;85.46;100168.69;5032142;28;20164;-84
2023/09/01 06:54:50;;;;;;;10.43;5.10;;;15.20;99.90;;;15.40;85.77;100157.69;5017930;28;20503;-84
2023/09/01 06:57:17;;;;;;;10.13;4.97;;;15.30;99.90;;;15.43;85.37;100159.88;5021504;28;20046;-84
2023/09/01 06:59:45;;;;;;;10.25;5.13;;;15.30;99.90;;;15.46;85.45;100155.88;5024144;28;20049;-84
2023/09/01 07:02:12;;;;;;;10.82;5.50;;;15.30;99.90;;;15.48;84.93;100164.50;5022470;28;20120;-84
2023/09/01 07:04:41;;;;;;;11.15;4.78;;;15.40;99.90;;;15.51;86.23;100155.13;5035072;28;20041;-84
2023/09/01 07:07:08;;;;;;;8.85;4.68;;;15.40;99.90;;;15.52;86.46;100152.19;5032584;28;20132;-84
2023/09/01 07:09:35;;;;;;;8.63;4.47;;;15.50;99.90;;;15.52;86.48;100146.81;5032222;28;20064;-85
2023/09/01 07:12:03;;;;;;;8.95;5.53;;;15.50;99.90;;;15.54;86.41;100141.19;5023835;28;20042;-87
2023/09/01 07:14:31;;;;;;;10.18;5.07;;;15.50;99.90;;;15.57;86.20;100151.44;5027543;28;20490;-84
2023/09/01 07:16:58;;;;;;;9.65;6.25;;;15.50;99.90;;;15.60;87.17;100149.06;5027729;28;20073;-83
2023/09/01 07:19:25;;;;;;;8.55;5.13;;;15.60;99.90;;;15.62;87.67;100151.50;5032335;28;20045;-83
2023/09/01 07:21:54;;;;;;;8.73;5.25;;;15.50;99.90;;;15.59;87.26;100155.50;5033304;28;20045;-83
2023/09/01 07:24:21;;;;;;;10.23;5.00;;;15.60;99.90;;;15.59;87.11;100165.44;5035281;28;20104;-83
2023/09/01 07:26:48;;;;;;;8.82;5.07;;;15.60;99.90;;;15.59;87.13;100149.31;5034837;28;20076;-83
2023/09/01 07:29:16;;;;;;;11.05;5.43;;;15.60;99.90;;;15.62;87.54;100140.75;5029786;28;20052;-83
2023/09/01 07:31:43;;;;;;;9.35;5.07;;;15.60;99.90;;;15.65;88.42;100137.56;5027409;28;20574;-83
2023/09/01 07:34:10;;;;;;;8.35;5.22;;;15.60;99.90;;;15.69;88.83;100139.50;5032935;28;20053;-83
2023/09/01 07:36:37;;;;;;;7.57;5.05;;;15.70;99.90;;;15.75;88.55;100147.63;5015383;28;20072;-83
2023/09/01 07:39:06;;;;;;;9.50;5.13;;;15.70;99.90;;;15.76;88.62;100150.03;5029464;28;20038;-82
2023/09/01 07:41:34;;;;;;;10.60;5.47;;;15.70;99.90;;;15.81;89.63;100155.50;5018089;28;20126;-81
2023/09/01 07:44:01;;;;;;;8.10;4.75;;;15.80;99.90;;;15.82;90.57;100154.44;5030845;28;20045;-82
2023/09/01 07:46:33;;;;;;;14.35;5.63;;;15.80;99.90;;;15.85;91.31;100159.28;5008401;28;20551;-82
2023/09/01 07:49:00;;;;;;;7.00;3.75;;;15.90;99.90;;;15.84;90.16;100154.97;5006964;28;20125;-82
2023/09/01 07:51:27;;;;;;;7.25;4.25;;;15.90;99.90;;;15.87;90.05;100156.38;5023757;28;20068;-82
2023/09/01 07:53:55;;;;;;;8.68;3.83;;;15.90;99.90;;;15.89;89.72;100148.84;5031161;28;20124;-82
2023/09/01 07:56:23;;;;;;;8.40;4.43;;;15.90;99.90;;;15.93;89.90;100163.41;5032146;28;20049;-82
2023/09/01 07:58:50;;;;;;;10.75;4.30;;;16.00;99.90;;;15.95;89.98;100156.69;5021420;28;20050;-82
2023/09/01 08:01:17;;;;;;;8.68;4.30;;;16.00;99.90;;;15.98;90.73;100157.28;5008637;28;20041;-82
2023/09/01 08:03:45;;;;;;;6.93;3.42;;;16.00;99.90;;;15.99;90.96;100169.66;5024788;28;20076;-82
2023/09/01 08:06:12;;;;;;;5.90;3.60;;;16.00;99.90;;;15.99;90.63;100161.56;5031816;28;20052;-82
2023/09/01 08:08:39;;;;;;;6.13;3.08;;;16.00;99.90;;;16.00;89.92;100161.31;5028632;28;20577;-82
2023/09/01 08:11:07;;;;;;;6.68;3.10;;;16.00;99.90;;;16.04;91.37;100157.06;5024751;28;20045;-82
2023/09/01 08:13:36;;;;;;;6.00;2.67;;;16.10;99.90;;;16.04;90.59;100151.69;5030898;28;20104;-82
2023/09/01 08:16:03;;;;;;;4.57;2.70;;;16.10;99.90;;;16.08;90.49;100160.06;5023323;28;20046;-82
2023/09/01 08:18:30;;;;;;;4.22;2.45;;;16.10;99.90;;;16.09;90.41;100151.72;5027917;28;20054;-82
2023/09/01 08:20:58;;;;;;;4.72;2.60;;;16.10;99.90;;;16.10;89.87;100160.59;5024128;28;20144;-82
2023/09/01 08:23:25;;;;;;;7.13;2.88;;;16.10;99.90;;;16.16;90.63;100170.38;5035009;28;20084;-82
2023/09/01 08:25:52;;;;;;;5.57;2.67;;;16.20;99.90;;;16.17;90.44;100169.28;5035925;28;20069;-82
2023/09/01 08:28:19;;;;;;;7.75;2.53;;;16.20;99.90;;;16.19;90.19;100169.84;5016194;28;20056;-82
2023/09/01 08:30:48;;;;;;;7.38;3.10;;;16.20;99.90;;;16.20;90.47;100166.06;5031804;28;20049;-82
2023/09/01 08:33:17;;;;;;;4.53;2.47;;;16.20;99.90;;;16.22;90.34;100164.75;5022899;28;20113;-82
2023/09/01 08:35:44;;;;;;;4.15;2.38;;;16.30;99.90;;;16.27;90.38;100165.88;5032303;28;20103;-82
2023/09/01 08:38:12;;;;;;;4.78;2.22;;;16.40;99.90;;;16.31;90.43;100148.97;5012953;28;20088;-83
2023/09/01 08:40:39;;;;;;;6.32;2.50;;;16.40;99.90;;;16.35;90.84;100157.34;5030894;28;20049;-82
2023/09/01 08:43:09;;;;;;;5.28;2.10;;;16.50;99.90;;;16.37;90.29;100161.38;5036167;28;20045;-82
2023/09/01 08:45:37;;;;;;;4.88;2.08;;;16.50;99.90;;;16.41;90.58;100175.97;5017363;28;20140;-83
2023/09/01 08:48:06;;;;;;;5.68;2.50;;;16.60;99.90;;;16.44;90.47;100178.13;5031509;28;20056;-82
2023/09/01 08:50:33;;;;;;;6.47;2.30;;;16.60;99.90;;;16.45;90.77;100174.38;5019865;28;20073;-82
2023/09/01 08:53:02;;;;;;;5.57;2.15;;;16.60;99.90;;;16.45;90.67;100181.66;5017913;28;20129;-83
2023/09/01 08:55:29;;;;;;;8.65;2.15;;;16.60;99.90;;;16.46;90.56;100184.06;5015275;28;20046;-82
2023/09/01 08:57:57;;;;;;;4.50;2.10;;;16.60;99.90;;;16.48;90.98;100190.00;5017392;28;20052;-82
2023/09/01 09:00:24;;;;;;;4.75;2.40;;;16.60;99.90;;;16.46;91.67;100178.69;5032746;28;20132;-82
2023/09/01 09:02:51;;;;;;;6.30;2.33;;;16.60;99.90;;;16.45;92.00;100179.75;5016327;28;20041;-82
2023/09/01 09:05:22;;;;;;;5.32;2.60;;;16.60;99.90;;;16.46;92.05;100192.16;5020850;28;20141;-83
2023/09/01 09:07:58;;;;;;;;;;;16.60;99.90;;;16.44;93.46;100199.66;5019452;28;20036;-83
2023/09/01 09:10:35;;;;;;;5.88;2.20;;;16.50;99.90;;;16.42;93.51;100195.59;5020586;28;19921;-82
2023/09/01 09:13:04;;;;;;;4.70;2.35;;;16.50;99.90;;;16.42;94.30;100201.00;5038201;28;20048;-83
2023/09/01 09:15:32;;;;;;;5.75;2.55;;;16.50;99.90;;;16.39;94.64;100202.31;5037371;28;20049;-82
2023/09/01 09:17:59;;;;;;;5.18;3.00;;;16.50;99.90;;;16.39;94.84;100207.69;5033858;28;20037;-83
2023/09/01 09:20:39;;;;;;;5.28;2.70;;;16.40;99.90;;;16.38;95.63;100203.38;5026897;28;20049;-82
2023/09/01 09:23:06;;;;;;;5.88;3.20;;;16.40;99.90;;;16.38;96.18;100199.88;5022605;28;20081;-82
2023/09/01 09:25:35;;;;;;;6.00;3.17;;;16.40;99.90;;;16.35;96.10;100198.53;5007404;28;20069;-82
2023/09/01 09:28:13;;;;;;;7.30;3.40;;;16.40;99.90;;;16.34;96.06;100196.88;5019803;28;20037;-81
2023/09/01 09:30:50;;;;;;;5.90;3.40;;;16.40;99.90;;;16.35;96.71;100190.44;5024344;28;20036;-82
2023/09/01 09:33:27;;;;;;;7.68;3.00;;;16.30;99.90;;;16.34;96.13;100188.81;5015718;28;20140;-82
2023/09/01 09:35:56;;;;;;;9.52;3.72;;;16.40;99.90;;;16.34;95.41;100188.81;5028233;28;20119;-82
2023/09/01 09:38:24;;;;;;;6.47;3.00;;;16.30;99.90;;;16.34;95.83;100193.38;5025303;28;20037;-82
2023/09/01 09:40:57;;;;;;;5.45;3.22;;;16.30;99.90;;;16.34;95.87;100183.41;5018233;28;20056;-82
2023/09/01 09:43:25;;;;;;;6.20;2.72;;;16.30;99.90;;;16.34;96.62;100182.63;5014102;28;20469;-82
2023/09/01 09:45:54;;;;;;;6.00;3.28;;;16.30;99.90;;;16.33;95.64;100181.81;5032973;28;20068;-82
2023/09/01 09:48:21;;;;;;;4.68;2.63;;;16.30;99.90;;;16.33;95.73;100189.88;5032666;28;20097;-82
2023/09/01 09:50:52;;;;;;;5.07;2.42;;;16.30;99.90;;;16.32;94.31;100196.34;5019601;28;20041;-82
2023/09/01 09:53:24;;;;;;;7.68;2.60;;;16.20;99.90;;;16.33;93.90;100197.13;5023722;28;20069;-82
2023/09/01 09:55:53;;;;;;;7.68;3.38;;;16.30;99.90;;;16.33;94.55;100197.13;5010092;28;20112;-82
2023/09/01 09:58:34;;;;;;;5.15;2.83;;;16.20;99.90;;;16.34;95.86;100204.94;5029984;28;20029;-82
2023/09/01 10:01:04;;;;;;;5.13;2.97;;;16.20;99.90;;;16.34;96.10;100198.75;5026864;28;20042;-82
2023/09/01 10:03:31;;;;;;;7.07;3.40;;;16.30;99.90;;;16.33;97.12;100203.34;5019477;28;20099;-83
2023/09/01 10:06:00;;;;;;;7.60;3.38;;;16.20;99.90;;;16.33;96.85;100210.59;5013675;28;20046;-83
2023/09/01 10:08:30;;;;;;;4.70;2.85;;;16.20;99.90;;;16.33;98.20;100213.28;5031841;28;20085;-83
2023/09/01 10:10:58;;;;;;;6.13;2.85;;;16.30;99.90;;;16.33;98.60;100210.59;5015195;28;20083;-83
2023/09/01 10:13:26;;;;;;;5.35;2.80;;;16.30;99.90;;;16.33;99.63;100202.53;5024327;28;20064;-83
2023/09/01 10:15:56;;;;;;;5.43;3.00;;;16.30;99.90;;;16.33;99.78;100215.97;5031740;28;20130;-82